createdAt,value
2023-04-30T00:00:29.899Z,55.16
2023-04-30T00:02:57.130Z,54.49
2023-04-30T00:05:25.960Z,54.10
2023-04-30T00:07:53.269Z,54.22
2023-04-30T00:10:20.373Z,53.67
2023-04-30T00:12:47.430Z,53.55
2023-04-30T00:15:14.478Z,53.18
2023-04-30T00:17:41.694Z,53.30
2023-04-30T00:20:12.487Z,52.96
2023-04-30T00:22:39.597Z,52.59
2023-04-30T00:25:06.919Z,52.78
2023-04-30T00:27:34.065Z,52.91
2023-04-30T00:30:01.142Z,52.73
2023-04-30T00:32:28.455Z,52.40
2023-04-30T00:34:55.654Z,52.72
2023-04-30T00:37:23.129Z,52.64
2023-04-30T00:39:53.412Z,52.62
2023-04-30T00:42:20.705Z,53.01
2023-04-30T00:44:47.827Z,53.48
2023-04-30T00:47:18.727Z,53.48
2023-04-30T00:49:49.383Z,53.77
2023-04-30T00:52:16.799Z,53.82
2023-04-30T00:54:44.059Z,53.04
2023-04-30T00:57:14.289Z,52.70
2023-04-30T00:59:42.432Z,53.07
2023-04-30T01:02:13.452Z,53.10
2023-04-30T01:04:41.138Z,53.05
2023-04-30T01:07:11.149Z,53.38
2023-04-30T01:09:40.993Z,53.01
2023-04-30T01:12:39.058Z,52.02
2023-04-30T01:15:15.534Z,53.13
2023-04-30T01:17:58.066Z,53.42
2023-04-30T01:20:29.785Z,54.17
2023-04-30T01:23:21.584Z,54.10
2023-04-30T01:26:20.125Z,54.46
2023-04-30T01:28:52.425Z,54.61
2023-04-30T01:31:20.047Z,54.51
2023-04-30T01:33:47.292Z,54.82
2023-04-30T01:36:42.196Z,55.42
2023-04-30T01:39:18.984Z,54.54
2023-04-30T01:42:02.433Z,54.41
2023-04-30T01:44:49.350Z,55.20
2023-04-30T01:47:52.419Z,56.11
2023-04-30T01:50:50.149Z,56.06
2023-04-30T01:53:24.428Z,55.81
2023-04-30T01:56:04.978Z,55.34
2023-04-30T01:58:36.151Z,55.10
2023-04-30T02:01:06.896Z,54.85
2023-04-30T02:03:34.202Z,55.25
2023-04-30T02:06:01.405Z,54.96
2023-04-30T02:08:32.095Z,54.71
2023-04-30T02:11:02.943Z,55.35
2023-04-30T02:13:33.601Z,54.65
2023-04-30T02:16:07.165Z,54.40
2023-04-30T02:18:34.432Z,54.98
2023-04-30T02:21:04.450Z,54.86
2023-04-30T02:23:34.278Z,54.98
2023-04-30T02:26:03.966Z,54.95
2023-04-30T02:28:34.062Z,54.59
2023-04-30T02:31:03.449Z,54.81
2023-04-30T02:33:33.201Z,54.38
2023-04-30T02:36:01.783Z,54.72
2023-04-30T02:38:34.369Z,54.83
2023-04-30T02:41:03.428Z,54.64
2023-04-30T02:43:30.944Z,54.37
2023-04-30T02:45:58.309Z,53.99
2023-04-30T02:48:25.558Z,54.09
2023-04-30T02:50:53.588Z,54.19
2023-04-30T02:53:23.951Z,53.76
2023-04-30T02:55:53.620Z,54.33
2023-04-30T02:58:21.134Z,54.68
2023-04-30T03:00:48.328Z,54.11
2023-04-30T03:03:15.986Z,54.50
2023-04-30T03:05:44.167Z,54.08
2023-04-30T03:08:11.179Z,53.79
2023-04-30T03:10:38.175Z,54.12
2023-04-30T03:13:05.235Z,53.33
2023-04-30T03:15:34.708Z,53.22
2023-04-30T03:18:01.865Z,53.38
2023-04-30T03:20:29.000Z,53.20
2023-04-30T03:22:56.124Z,53.16
2023-04-30T03:25:23.372Z,53.17
2023-04-30T03:27:50.366Z,53.05
2023-04-30T03:30:17.676Z,52.86
2023-04-30T03:32:45.208Z,52.50
2023-04-30T03:35:12.308Z,52.60
2023-04-30T03:37:39.324Z,52.64
2023-04-30T03:40:07.258Z,52.22
2023-04-30T03:42:34.395Z,52.05
2023-04-30T03:45:01.746Z,51.17
2023-04-30T03:47:28.837Z,51.75
2023-04-30T03:49:56.421Z,51.60
2023-04-30T03:52:24.498Z,51.41
2023-04-30T03:54:51.508Z,51.33
2023-04-30T03:57:20.157Z,51.58
2023-04-30T04:02:56.366Z,51.48
2023-04-30T04:05:28.113Z,51.85
2023-04-30T04:07:59.096Z,51.87
2023-04-30T04:10:29.863Z,51.92
2023-04-30T04:12:57.610Z,52.24
2023-04-30T04:15:25.003Z,52.73
2023-04-30T04:17:52.364Z,52.11
2023-04-30T04:20:19.678Z,52.34
2023-04-30T04:22:49.907Z,52.18
2023-04-30T04:25:20.176Z,52.36
2023-04-30T04:27:47.608Z,52.15
2023-04-30T04:30:17.633Z,51.94
2023-04-30T04:32:49.510Z,51.85
2023-04-30T04:35:19.115Z,51.42
2023-04-30T04:37:46.170Z,51.33
2023-04-30T04:40:16.772Z,51.41
2023-04-30T04:42:46.781Z,50.97
2023-04-30T04:45:16.014Z,50.94
2023-04-30T04:47:43.509Z,51.33
2023-04-30T04:50:11.324Z,50.94
2023-04-30T04:52:39.282Z,51.43
2023-04-30T04:55:07.465Z,52.03
2023-04-30T04:57:34.697Z,52.13
2023-04-30T05:00:02.169Z,51.91
2023-04-30T05:02:30.257Z,52.02
2023-04-30T05:05:02.933Z,52.44
2023-04-30T05:07:36.288Z,52.22
2023-04-30T05:10:04.303Z,52.20
2023-04-30T05:12:34.700Z,52.23
2023-04-30T05:15:01.872Z,52.14
2023-04-30T05:17:29.396Z,52.03
2023-04-30T05:19:56.936Z,52.13
2023-04-30T05:22:24.621Z,52.09
2023-04-30T05:24:53.374Z,52.27
2023-04-30T05:27:23.320Z,51.86
2023-04-30T05:29:50.544Z,52.13
2023-04-30T05:32:17.651Z,52.32
2023-04-30T05:34:46.602Z,51.86
2023-04-30T05:37:20.838Z,51.71
2023-04-30T05:39:48.424Z,51.85
2023-04-30T05:42:19.240Z,51.74
2023-04-30T05:44:48.491Z,52.03
2023-04-30T05:47:15.663Z,52.04
2023-04-30T05:49:45.798Z,52.43
2023-04-30T05:52:14.430Z,52.33
2023-04-30T05:54:41.570Z,52.26
2023-04-30T05:57:08.765Z,52.27
2023-04-30T05:59:35.901Z,52.46
2023-04-30T06:02:03.245Z,52.36
2023-04-30T06:04:36.921Z,52.87
2023-04-30T06:07:04.214Z,53.10
2023-04-30T06:09:31.594Z,52.94
2023-04-30T06:11:58.824Z,52.76
2023-04-30T06:14:26.984Z,52.78
2023-04-30T06:16:56.681Z,52.80
2023-04-30T06:19:23.863Z,53.24
2023-04-30T06:21:50.965Z,52.70
2023-04-30T06:24:20.323Z,52.18
2023-04-30T06:26:47.772Z,52.56
2023-04-30T06:29:15.028Z,52.27
2023-04-30T06:31:42.269Z,52.47
2023-04-30T06:34:09.422Z,52.61
2023-04-30T06:36:38.884Z,52.44
2023-04-30T06:39:06.813Z,52.23
2023-04-30T06:41:34.253Z,52.78
2023-04-30T06:44:07.433Z,52.97
2023-04-30T06:46:35.096Z,53.32
2023-04-30T06:49:02.562Z,53.43
2023-04-30T06:51:32.903Z,53.01
2023-04-30T06:54:02.488Z,53.02
2023-04-30T06:56:33.081Z,53.50
2023-04-30T06:59:00.416Z,53.58
2023-04-30T07:01:36.616Z,53.38
2023-04-30T07:04:04.633Z,53.39
2023-04-30T07:06:32.026Z,53.30
2023-04-30T07:08:59.280Z,53.25
2023-04-30T07:11:26.856Z,53.08
2023-04-30T07:13:57.434Z,52.94
2023-04-30T07:16:29.618Z,52.97
2023-04-30T07:18:56.934Z,52.86
2023-04-30T07:21:29.627Z,52.77
2023-04-30T07:24:05.631Z,52.42
2023-04-30T07:26:37.463Z,52.79
2023-04-30T07:29:10.000Z,52.01
2023-04-30T07:31:40.125Z,51.88
2023-04-30T07:34:10.498Z,52.14
2023-04-30T07:36:45.012Z,52.22
2023-04-30T07:39:15.469Z,52.37
2023-04-30T07:41:54.106Z,52.80
2023-04-30T07:44:21.957Z,52.54
2023-04-30T07:46:50.073Z,52.67
2023-04-30T07:49:22.166Z,52.73
2023-04-30T07:51:58.190Z,52.57
2023-04-30T07:54:31.501Z,52.34
2023-04-30T07:57:04.082Z,52.40
2023-04-30T07:59:44.305Z,52.54
2023-04-30T08:02:13.956Z,52.06
2023-04-30T08:04:47.329Z,52.15
2023-04-30T08:07:17.039Z,51.53
2023-04-30T08:09:47.320Z,51.78
2023-04-30T08:12:22.347Z,51.58
2023-04-30T08:15:04.212Z,51.34
2023-04-30T08:17:39.156Z,51.13
2023-04-30T08:20:10.155Z,50.26
2023-04-30T08:22:39.779Z,49.81
2023-04-30T08:25:07.624Z,48.96
2023-04-30T08:27:44.711Z,48.32
2023-04-30T08:30:18.069Z,47.99
2023-04-30T08:32:49.699Z,47.42
2023-04-30T08:35:19.233Z,47.87
2023-04-30T08:37:46.794Z,47.72
2023-04-30T08:40:51.557Z,47.66
2023-04-30T08:43:20.672Z,46.88
2023-04-30T08:48:45.121Z,47.97
2023-04-30T08:51:13.351Z,48.38
2023-04-30T08:53:51.017Z,47.70
2023-04-30T08:56:31.509Z,47.37
2023-04-30T08:59:09.217Z,46.51
2023-04-30T09:01:38.281Z,46.33
2023-04-30T09:04:09.790Z,46.44
2023-04-30T09:06:45.072Z,45.58
2023-04-30T09:09:23.543Z,45.96
2023-04-30T09:12:19.332Z,46.17
2023-04-30T09:15:05.492Z,45.42
2023-04-30T09:17:38.167Z,46.42
2023-04-30T09:20:09.658Z,46.82
2023-04-30T09:22:43.616Z,45.42
2023-04-30T09:25:18.445Z,45.44
2023-04-30T09:28:24.385Z,44.35
2023-04-30T09:31:21.882Z,44.05
2023-04-30T09:34:01.382Z,44.95
2023-04-30T09:36:32.004Z,44.28
2023-04-30T09:39:14.250Z,44.34
2023-04-30T09:41:50.299Z,45.07
2023-04-30T09:44:30.830Z,44.32
2023-04-30T09:47:03.738Z,44.38
2023-04-30T09:49:41.464Z,44.11
2023-04-30T09:52:18.206Z,44.07
2023-04-30T09:54:51.308Z,44.67
2023-04-30T09:57:23.301Z,44.08
2023-04-30T09:59:57.054Z,43.70
2023-04-30T10:02:27.777Z,42.99
2023-04-30T10:05:01.645Z,43.28
2023-04-30T10:07:48.226Z,43.65
2023-04-30T10:10:23.382Z,43.85
2023-04-30T10:12:55.113Z,44.63
2023-04-30T10:15:57.585Z,44.17
2023-04-30T10:18:53.705Z,43.70
2023-04-30T10:21:35.642Z,43.22
2023-04-30T10:24:06.352Z,43.28
2023-04-30T10:26:54.487Z,42.86
2023-04-30T10:29:31.899Z,42.26
2023-04-30T10:32:02.195Z,42.39
2023-04-30T10:35:04.982Z,40.98
2023-04-30T10:38:15.549Z,41.32
2023-04-30T10:40:48.213Z,39.87
2023-04-30T10:43:19.081Z,40.31
2023-04-30T10:45:46.456Z,40.97
2023-04-30T10:48:25.336Z,41.32
2023-04-30T10:50:56.394Z,41.55
2023-04-30T10:53:28.204Z,42.16
2023-04-30T10:56:03.022Z,41.92
2023-04-30T10:58:36.410Z,41.72
2023-04-30T11:01:08.791Z,42.18
2023-04-30T11:03:38.573Z,42.41
2023-04-30T11:06:22.227Z,41.83
2023-04-30T11:08:53.394Z,42.51
2023-04-30T11:11:24.085Z,42.02
2023-04-30T11:14:01.936Z,41.26
2023-04-30T11:16:42.796Z,40.91
2023-04-30T11:19:15.349Z,40.87
2023-04-30T11:22:03.817Z,39.24
2023-04-30T11:24:52.968Z,40.01
2023-04-30T11:27:30.235Z,40.27
2023-04-30T11:30:10.364Z,40.65
2023-04-30T11:32:39.424Z,40.71
2023-04-30T11:35:09.677Z,41.21
2023-04-30T11:37:39.392Z,42.05
2023-04-30T11:40:14.255Z,42.28
2023-04-30T11:42:51.634Z,42.52
2023-04-30T11:45:25.815Z,40.82
2023-04-30T11:47:58.093Z,41.18
2023-04-30T11:50:42.845Z,41.13
2023-04-30T11:53:28.964Z,40.97
2023-04-30T11:55:59.119Z,41.24
2023-04-30T11:58:33.505Z,41.07
2023-04-30T12:01:04.956Z,41.29
2023-04-30T12:03:46.528Z,42.66
2023-04-30T12:06:26.646Z,43.34
2023-04-30T12:08:58.089Z,43.06
2023-04-30T12:11:27.412Z,42.79
2023-04-30T12:14:07.892Z,42.84
2023-04-30T12:16:52.321Z,41.75
2023-04-30T12:19:22.475Z,41.48
2023-04-30T12:21:50.337Z,40.89
2023-04-30T12:24:20.193Z,41.13
2023-04-30T12:26:48.256Z,41.62
2023-04-30T12:29:17.851Z,42.17
2023-04-30T12:31:52.675Z,41.24
2023-04-30T12:34:20.147Z,40.78
2023-04-30T12:36:47.551Z,39.50
2023-04-30T12:39:18.572Z,39.20
2023-04-30T12:41:50.018Z,39.10
2023-04-30T12:44:25.720Z,38.85
2023-04-30T12:46:57.408Z,39.06
2023-04-30T12:49:28.725Z,40.04
2023-04-30T12:52:14.248Z,39.76
2023-04-30T12:54:42.108Z,41.13
2023-04-30T12:57:13.198Z,43.02
2023-04-30T12:59:58.514Z,43.38
2023-04-30T13:02:36.070Z,42.16
2023-04-30T13:05:04.130Z,42.78
2023-04-30T13:07:43.953Z,42.10
2023-04-30T13:10:14.307Z,41.22
2023-04-30T13:12:43.906Z,40.83
2023-04-30T13:15:11.368Z,40.31
2023-04-30T13:17:42.617Z,41.75
2023-04-30T13:20:10.585Z,41.08
2023-04-30T13:22:38.013Z,41.26
2023-04-30T13:25:05.803Z,41.98
2023-04-30T13:27:32.884Z,41.67
2023-04-30T13:30:01.389Z,42.64
2023-04-30T13:32:28.796Z,44.40
2023-04-30T13:34:56.890Z,44.05
2023-04-30T13:37:24.601Z,44.29
2023-04-30T13:39:51.730Z,43.46
2023-04-30T13:42:19.121Z,44.91
2023-04-30T13:44:47.931Z,45.22
2023-04-30T13:47:15.372Z,45.06
2023-04-30T13:49:42.541Z,44.87
2023-04-30T13:52:10.349Z,44.96
2023-04-30T13:54:41.171Z,45.89
2023-04-30T13:57:08.383Z,46.83
2023-04-30T13:59:36.233Z,45.36
2023-04-30T14:02:03.555Z,45.81
2023-04-30T14:04:33.421Z,44.95
2023-04-30T14:07:02.179Z,45.38
2023-04-30T14:09:31.567Z,44.29
2023-04-30T14:11:59.290Z,43.37
2023-04-30T14:14:27.138Z,44.01
2023-04-30T14:16:54.768Z,43.62
2023-04-30T14:19:25.510Z,44.05
2023-04-30T14:21:52.700Z,43.97
2023-04-30T14:24:20.476Z,42.58
2023-04-30T14:26:47.833Z,42.17
2023-04-30T14:29:19.331Z,43.38
2023-04-30T14:31:51.312Z,43.97
2023-04-30T14:34:21.357Z,46.15
2023-04-30T14:36:48.508Z,46.05
2023-04-30T14:39:15.862Z,47.01
2023-04-30T14:41:43.080Z,46.69
2023-04-30T14:44:21.292Z,47.19
2023-04-30T14:46:48.591Z,46.95
2023-04-30T14:49:23.231Z,46.31
2023-04-30T14:51:55.417Z,46.55
2023-04-30T14:54:23.212Z,46.61
2023-04-30T14:56:50.862Z,46.61
2023-04-30T14:59:18.504Z,45.20
2023-04-30T15:01:49.066Z,43.32
2023-04-30T15:04:16.567Z,43.86
2023-04-30T15:06:44.024Z,43.71
2023-04-30T15:09:14.442Z,44.05
2023-04-30T15:11:41.572Z,46.13
2023-04-30T15:14:12.078Z,46.36
2023-04-30T15:16:39.727Z,45.64
2023-04-30T15:19:06.902Z,45.83
2023-04-30T15:21:34.323Z,46.26
2023-04-30T15:24:04.115Z,46.72
2023-04-30T15:26:31.582Z,47.72
2023-04-30T15:28:58.661Z,47.16
2023-04-30T15:31:25.886Z,48.30
2023-04-30T15:33:56.047Z,48.90
2023-04-30T15:36:23.591Z,51.02
2023-04-30T15:38:51.274Z,51.11
2023-04-30T15:41:18.332Z,50.78
2023-04-30T15:43:48.414Z,51.82
2023-04-30T15:46:16.251Z,52.72
2023-04-30T15:48:43.449Z,52.21
2023-04-30T15:51:10.540Z,53.80
2023-04-30T15:53:40.298Z,54.88
2023-04-30T15:56:09.015Z,55.67
2023-04-30T15:58:36.030Z,58.06
2023-04-30T16:01:03.311Z,58.07
2023-04-30T16:03:33.385Z,59.15
2023-04-30T16:06:08.489Z,61.23
2023-04-30T16:08:36.048Z,62.14
2023-04-30T16:11:04.121Z,63.24
2023-04-30T16:13:31.521Z,62.55
2023-04-30T16:15:58.941Z,64.49
2023-04-30T16:18:26.205Z,66.45
2023-04-30T16:20:53.604Z,67.93
2023-04-30T16:23:21.009Z,67.79
2023-04-30T16:25:48.048Z,68.78
2023-04-30T16:28:15.238Z,68.51
2023-04-30T16:30:42.711Z,69.12
2023-04-30T16:33:15.059Z,66.82
2023-04-30T16:35:44.550Z,66.01
2023-04-30T16:38:13.127Z,66.05
2023-04-30T16:40:40.804Z,65.76
2023-04-30T16:43:08.381Z,66.17
2023-04-30T16:45:36.131Z,64.35
2023-04-30T16:48:03.697Z,63.86
2023-04-30T16:50:33.702Z,61.76
2023-04-30T16:53:00.767Z,60.25
2023-04-30T16:55:27.802Z,61.74
2023-04-30T16:57:55.168Z,60.86
2023-04-30T17:00:22.353Z,60.27
2023-04-30T17:02:50.416Z,61.38
2023-04-30T17:05:17.536Z,60.77
2023-04-30T17:07:45.102Z,60.97
2023-04-30T17:10:13.389Z,60.54
2023-04-30T17:12:40.621Z,59.81
2023-04-30T17:15:08.172Z,59.88
2023-04-30T17:17:35.361Z,60.50
2023-04-30T17:20:02.563Z,60.96
2023-04-30T17:22:33.149Z,60.94
2023-04-30T17:25:02.328Z,61.49
2023-04-30T17:27:31.293Z,61.16
2023-04-30T17:29:58.678Z,60.93
2023-04-30T17:32:27.289Z,60.61
2023-04-30T17:34:54.684Z,59.94
2023-04-30T17:37:21.809Z,59.68
2023-04-30T17:39:49.019Z,60.38
2023-04-30T17:42:16.612Z,59.95
2023-04-30T17:44:45.272Z,60.45
2023-04-30T17:47:15.500Z,61.00
2023-04-30T17:49:43.338Z,60.03
2023-04-30T17:52:13.792Z,59.71
2023-04-30T17:54:45.148Z,60.53
2023-04-30T17:57:12.274Z,62.10
2023-04-30T17:59:40.256Z,61.76
2023-04-30T18:02:10.213Z,61.47
2023-04-30T18:04:43.364Z,60.98
2023-04-30T18:07:11.107Z,61.16
2023-04-30T18:09:38.167Z,60.79
2023-04-30T18:12:05.969Z,61.62
2023-04-30T18:14:32.971Z,61.23
2023-04-30T18:17:00.116Z,61.23
2023-04-30T18:19:30.131Z,61.68
2023-04-30T18:21:57.543Z,61.27
2023-04-30T18:24:27.940Z,61.27
2023-04-30T18:26:58.531Z,62.52
2023-04-30T18:29:26.632Z,61.77
2023-04-30T18:31:53.686Z,62.01
2023-04-30T18:34:20.742Z,61.94
2023-04-30T18:36:47.848Z,61.76
2023-04-30T18:39:15.117Z,62.41
2023-04-30T18:41:42.265Z,62.28
2023-04-30T18:44:11.915Z,63.11
2023-04-30T18:46:39.095Z,63.31
2023-04-30T18:49:06.751Z,62.66
2023-04-30T18:51:41.231Z,62.99
2023-04-30T18:54:13.837Z,62.67
2023-04-30T18:56:41.270Z,62.35
2023-04-30T18:59:08.562Z,62.15
2023-04-30T19:01:40.985Z,61.85
2023-04-30T19:04:13.912Z,61.34
2023-04-30T19:06:45.558Z,61.57
2023-04-30T19:09:15.841Z,61.72
2023-04-30T19:11:48.752Z,62.80
2023-04-30T19:14:20.720Z,62.44
2023-04-30T19:16:53.490Z,62.05
2023-04-30T19:19:26.863Z,61.66
2023-04-30T19:21:59.498Z,61.53
2023-04-30T19:24:27.093Z,61.77
2023-04-30T19:26:54.678Z,62.25
2023-04-30T19:29:24.847Z,61.81
2023-04-30T19:31:54.680Z,61.54
2023-04-30T19:34:23.353Z,61.51
2023-04-30T19:39:46.765Z,61.87
2023-04-30T19:42:38.914Z,62.01
2023-04-30T19:45:10.553Z,61.49
2023-04-30T19:47:41.567Z,61.97
2023-04-30T19:50:18.663Z,62.01
2023-04-30T19:53:16.575Z,61.66
2023-04-30T19:55:53.993Z,61.29
2023-04-30T19:58:25.793Z,61.42
2023-04-30T20:01:19.896Z,61.38
2023-04-30T20:03:56.495Z,61.27
2023-04-30T20:06:28.615Z,61.50
2023-04-30T20:09:02.217Z,61.84
2023-04-30T20:11:31.406Z,61.22
2023-04-30T20:14:02.530Z,61.33
2023-04-30T20:16:32.365Z,60.76
2023-04-30T20:19:03.508Z,60.78
2023-04-30T20:21:32.467Z,60.62
2023-04-30T20:24:00.552Z,62.09
2023-04-30T20:26:27.907Z,61.23
2023-04-30T20:29:03.334Z,60.93
2023-04-30T20:31:33.167Z,60.94
2023-04-30T20:34:04.239Z,61.03
2023-04-30T20:36:42.460Z,60.58
2023-04-30T20:39:11.457Z,61.61
2023-04-30T20:41:39.614Z,61.13
2023-04-30T20:44:09.995Z,60.61
2023-04-30T20:46:38.510Z,60.23
2023-04-30T20:49:07.233Z,60.41
2023-04-30T20:51:34.651Z,60.58
2023-04-30T20:54:04.435Z,59.87
2023-04-30T20:56:36.628Z,59.98
2023-04-30T20:59:05.424Z,59.49
2023-04-30T21:01:34.829Z,59.74
2023-04-30T21:04:04.060Z,59.26
2023-04-30T21:06:34.092Z,59.97
2023-04-30T21:09:06.709Z,59.85
2023-04-30T21:11:35.357Z,59.07
2023-04-30T21:16:52.022Z,59.12
2023-04-30T21:19:21.211Z,59.43
2023-04-30T21:21:52.688Z,59.48
2023-04-30T21:24:22.279Z,59.94
2023-04-30T21:26:55.524Z,59.38
2023-04-30T21:29:27.856Z,58.87
2023-04-30T21:31:56.717Z,58.63
2023-04-30T21:34:29.602Z,58.74
2023-04-30T21:36:57.998Z,58.83
2023-04-30T21:39:25.452Z,58.80
2023-04-30T21:41:54.192Z,58.56
2023-04-30T21:44:22.399Z,58.62
2023-04-30T21:46:53.023Z,58.94
2023-04-30T21:49:23.017Z,58.43
2023-04-30T21:51:51.426Z,58.64
2023-04-30T21:54:22.348Z,59.30
2023-04-30T21:56:56.119Z,60.27
2023-04-30T21:59:25.546Z,60.64
2023-04-30T22:01:54.118Z,60.86
2023-04-30T22:04:25.835Z,60.67
2023-04-30T22:06:54.474Z,60.68
2023-04-30T22:09:23.854Z,61.09
2023-04-30T22:11:52.648Z,60.49
2023-04-30T22:14:20.831Z,61.08
2023-04-30T22:16:49.957Z,61.35
2023-04-30T22:19:21.078Z,60.73
2023-04-30T22:21:49.350Z,61.23
2023-04-30T22:24:16.779Z,61.10
2023-04-30T22:26:44.485Z,61.27
2023-04-30T22:29:11.664Z,60.95
2023-04-30T22:31:40.630Z,61.15
2023-04-30T22:34:11.584Z,61.29
2023-04-30T22:36:45.265Z,60.76
2023-04-30T22:39:13.940Z,60.65
2023-04-30T22:41:47.377Z,60.97
2023-04-30T22:44:15.319Z,60.86
2023-04-30T22:46:46.167Z,60.14
2023-04-30T22:49:23.818Z,59.91
2023-04-30T22:51:57.821Z,59.97
2023-04-30T22:54:25.573Z,59.95
2023-04-30T22:56:59.130Z,59.59
2023-04-30T23:02:07.509Z,59.30
2023-04-30T23:04:36.422Z,59.97
2023-04-30T23:07:03.886Z,59.55
2023-04-30T23:09:31.064Z,59.26
2023-04-30T23:11:58.267Z,59.04
2023-04-30T23:14:26.051Z,59.07
2023-04-30T23:16:54.672Z,59.29
2023-04-30T23:19:22.358Z,59.28
2023-04-30T23:21:49.664Z,59.16
2023-04-30T23:24:16.831Z,59.04
2023-04-30T23:26:44.539Z,58.60
2023-04-30T23:29:11.783Z,58.31
2023-04-30T23:31:39.024Z,58.60
2023-04-30T23:34:06.531Z,58.69
2023-04-30T23:36:35.014Z,58.28
2023-04-30T23:39:02.745Z,58.02
2023-04-30T23:41:30.655Z,58.01
2023-04-30T23:43:57.854Z,58.43
2023-04-30T23:46:25.184Z,58.04
2023-04-30T23:48:52.572Z,57.98
2023-04-30T23:51:21.771Z,57.78
2023-04-30T23:53:52.005Z,57.79
2023-04-30T23:56:26.673Z,57.81
